createdAt,value
2019-02-23T00:01:11.981Z,-3.00
2019-02-23T00:03:41.610Z,-3.00
2019-02-23T00:06:11.209Z,-3.10
2019-02-23T00:08:40.766Z,-3.00
2019-02-23T00:11:10.345Z,-3.00
2019-02-23T00:13:39.895Z,-3.00
2019-02-23T00:16:09.443Z,-3.00
2019-02-23T00:18:39.039Z,-3.00
2019-02-23T00:21:08.611Z,-3.00
2019-02-23T00:23:38.152Z,-3.00
2019-02-23T00:26:07.705Z,-2.90
2019-02-23T00:28:37.261Z,-2.90
2019-02-23T00:31:06.806Z,-2.90
2019-02-23T00:33:36.358Z,-2.90
2019-02-23T00:36:05.950Z,-2.90
2019-02-23T00:38:35.493Z,-2.90
2019-02-23T00:41:05.050Z,-2.80
2019-02-23T00:43:34.601Z,-2.80
2019-02-23T00:46:04.161Z,-2.90
2019-02-23T00:48:33.755Z,-2.90
2019-02-23T00:51:03.299Z,-2.90
2019-02-23T00:53:32.886Z,-2.90
2019-02-23T00:56:02.437Z,-2.90
2019-02-23T00:58:31.993Z,-2.90
2019-02-23T01:01:01.557Z,-2.90
2019-02-23T01:03:31.926Z,-2.80
2019-02-23T01:06:01.475Z,-2.90
2019-02-23T01:08:31.028Z,-2.90
2019-02-23T01:11:00.577Z,-2.90
2019-02-23T01:13:30.130Z,-2.90
2019-02-23T01:15:59.731Z,-2.90
2019-02-23T01:18:30.273Z,-3.00
2019-02-23T01:20:59.864Z,-3.00
2019-02-23T01:23:29.401Z,-3.10
2019-02-23T01:25:58.970Z,-3.10
2019-02-23T01:28:28.518Z,-3.10
2019-02-23T01:30:58.070Z,-3.10
2019-02-23T01:33:27.622Z,-3.10
2019-02-23T01:35:57.182Z,-3.10
2019-02-23T01:38:26.790Z,-3.10
2019-02-23T01:40:56.349Z,-3.20
2019-02-23T01:43:25.905Z,-3.20
2019-02-23T01:45:55.453Z,-3.20
2019-02-23T01:48:25.026Z,-3.20
2019-02-23T01:50:54.598Z,-3.20
2019-02-23T01:53:24.160Z,-3.20
2019-02-23T01:55:53.711Z,-3.10
2019-02-23T01:58:23.261Z,-3.10
2019-02-23T02:00:52.829Z,-3.10
2019-02-23T02:03:22.824Z,-3.10
2019-02-23T02:05:52.377Z,-3.10
2019-02-23T02:08:21.943Z,-3.10
2019-02-23T02:10:51.493Z,-3.10
2019-02-23T02:13:21.054Z,-3.10
2019-02-23T02:15:50.861Z,-3.10
2019-02-23T02:18:20.409Z,-3.10
2019-02-23T02:20:50.197Z,-3.30
2019-02-23T02:23:19.708Z,-3.10
2019-02-23T02:25:49.259Z,-3.10
2019-02-23T02:28:18.841Z,-3.10
2019-02-23T02:30:48.395Z,-3.10
2019-02-23T02:33:17.941Z,-3.20
2019-02-23T02:35:47.516Z,-3.10
2019-02-23T02:38:18.050Z,-3.10
2019-02-23T02:40:47.646Z,-3.10
2019-02-23T02:43:17.200Z,-3.10
2019-02-23T02:45:46.757Z,-3.10
2019-02-23T02:48:16.322Z,-3.20
2019-02-23T02:50:45.879Z,-3.20
2019-02-23T02:53:15.483Z,-3.20
2019-02-23T02:55:45.018Z,-3.20
2019-02-23T02:58:14.576Z,-3.20
2019-02-23T03:00:44.122Z,-3.20
2019-02-23T03:03:13.671Z,-3.20
2019-02-23T03:05:43.574Z,-3.30
2019-02-23T03:08:13.113Z,-3.30
2019-02-23T03:10:42.715Z,-3.40
2019-02-23T03:13:12.272Z,-3.40
2019-02-23T03:15:41.865Z,-3.40
2019-02-23T03:18:11.516Z,-3.40
2019-02-23T03:20:43.053Z,-3.50
2019-02-23T03:23:12.609Z,-3.50
2019-02-23T03:25:42.196Z,-3.50
2019-02-23T03:28:11.746Z,-3.50
2019-02-23T03:30:41.317Z,-3.60
2019-02-23T03:33:11.625Z,-3.60
2019-02-23T03:35:41.200Z,-3.60
2019-02-23T03:38:11.223Z,-3.70
2019-02-23T03:40:42.609Z,-3.70
2019-02-23T03:43:12.674Z,-3.70
2019-02-23T03:45:42.223Z,-3.70
2019-02-23T03:48:11.809Z,-3.70
2019-02-23T03:50:49.111Z,-3.70
2019-02-23T03:53:12.578Z,-3.70
2019-02-23T03:55:42.143Z,-3.70
2019-02-23T03:58:11.715Z,-3.80
2019-02-23T04:00:41.287Z,-3.80
2019-02-23T04:03:10.890Z,-3.80
2019-02-23T04:05:42.005Z,-3.80
2019-02-23T04:08:11.903Z,-3.90
2019-02-23T04:10:41.482Z,-3.90
2019-02-23T04:13:11.046Z,-3.90
2019-02-23T04:15:40.993Z,-3.90
2019-02-23T04:18:10.540Z,-4.00
2019-02-23T04:20:40.176Z,-3.90
2019-02-23T04:23:09.738Z,-4.00
2019-02-23T04:25:39.309Z,-4.00
2019-02-23T04:28:08.869Z,-4.00
2019-02-23T04:30:38.427Z,-4.00
2019-02-23T04:33:08.025Z,-4.00
2019-02-23T04:35:37.582Z,-4.10
2019-02-23T04:38:07.125Z,-4.10
2019-02-23T04:40:36.698Z,-4.20
2019-02-23T04:43:06.257Z,-4.20
2019-02-23T04:45:35.868Z,-4.20
2019-02-23T04:48:05.393Z,-4.20
2019-02-23T04:50:34.948Z,-4.30
2019-02-23T04:53:04.498Z,-4.30
2019-02-23T04:55:34.050Z,-4.30
2019-02-23T04:58:04.659Z,-4.30
2019-02-23T05:00:34.218Z,-4.40
2019-02-23T05:03:03.796Z,-4.40
2019-02-23T05:05:33.335Z,-4.40
2019-02-23T05:08:02.907Z,-4.50
2019-02-23T05:10:32.470Z,-4.50
2019-02-23T05:13:02.022Z,-4.50
2019-02-23T05:15:31.627Z,-4.50
2019-02-23T05:18:01.191Z,-4.50
2019-02-23T05:20:30.764Z,-4.50
2019-02-23T05:23:00.407Z,-4.50
2019-02-23T05:25:31.089Z,-4.40
2019-02-23T05:28:00.637Z,-4.40
2019-02-23T05:30:30.206Z,-4.40
2019-02-23T05:32:59.774Z,-4.50
2019-02-23T05:35:29.321Z,-4.50
2019-02-23T05:37:58.884Z,-4.50
2019-02-23T05:40:28.425Z,-4.50
2019-02-23T05:43:01.182Z,-4.50
2019-02-23T05:45:29.191Z,-4.60
2019-02-23T05:47:58.783Z,-4.60
2019-02-23T05:50:28.329Z,-4.60
2019-02-23T05:52:58.070Z,-4.60
2019-02-23T05:55:27.639Z,-4.60
2019-02-23T05:57:57.263Z,-4.70
2019-02-23T06:00:28.036Z,-4.60
2019-02-23T06:02:57.720Z,-4.60
2019-02-23T06:05:27.273Z,-4.60
2019-02-23T06:07:56.885Z,-4.60
2019-02-23T06:10:26.429Z,-4.60
2019-02-23T06:12:55.982Z,-4.60
2019-02-23T06:15:25.544Z,-4.60
2019-02-23T06:17:55.087Z,-4.50
2019-02-23T06:20:25.653Z,-4.50
2019-02-23T06:22:55.194Z,-4.30
2019-02-23T06:25:24.789Z,-4.20
2019-02-23T06:27:54.614Z,-4.10
2019-02-23T06:30:25.370Z,-4.00
2019-02-23T06:32:54.921Z,-3.90
2019-02-23T06:35:24.501Z,-3.70
2019-02-23T06:37:54.439Z,-3.60
2019-02-23T06:40:23.998Z,-3.50
2019-02-23T06:42:53.868Z,-3.40
2019-02-23T06:45:23.412Z,-3.20
2019-02-23T06:47:53.001Z,-3.10
2019-02-23T06:50:22.550Z,-2.90
2019-02-23T06:52:52.101Z,-2.80
2019-02-23T06:55:21.657Z,-2.70
2019-02-23T06:57:51.201Z,-2.50
2019-02-23T07:00:21.791Z,-2.40
2019-02-23T07:02:53.233Z,-2.20
2019-02-23T07:05:22.787Z,-2.10
2019-02-23T07:07:52.390Z,-2.00
2019-02-23T07:10:21.929Z,-2.00
2019-02-23T07:12:51.477Z,-1.90
2019-02-23T07:15:21.038Z,-1.80
2019-02-23T07:17:50.602Z,-1.70
2019-02-23T07:20:20.162Z,-1.60
2019-02-23T07:22:49.697Z,-1.50
2019-02-23T07:25:19.300Z,-1.40
2019-02-23T07:27:48.844Z,-1.20
2019-02-23T07:30:18.410Z,-1.00
2019-02-23T07:32:47.966Z,-0.80
2019-02-23T07:35:17.512Z,-0.70
2019-02-23T07:37:47.101Z,-0.50
2019-02-23T07:40:17.250Z,-0.40
2019-02-23T07:42:46.850Z,-0.20
2019-02-23T07:45:16.393Z,-0.10
2019-02-23T07:47:45.952Z,0.00
2019-02-23T07:50:16.507Z,0.10
2019-02-23T07:52:46.086Z,0.30
2019-02-23T07:55:15.651Z,0.40
2019-02-23T07:57:45.298Z,0.50
2019-02-23T08:00:14.851Z,0.50
2019-02-23T08:02:44.387Z,0.60
2019-02-23T08:05:14.890Z,0.60
2019-02-23T08:07:44.430Z,0.60
2019-02-23T08:10:13.982Z,0.60
2019-02-23T08:12:43.537Z,0.60
2019-02-23T08:15:13.090Z,0.70
2019-02-23T08:17:42.759Z,0.70
2019-02-23T08:20:13.294Z,0.90
2019-02-23T08:22:42.990Z,1.00
2019-02-23T08:25:13.934Z,1.20
2019-02-23T08:27:43.522Z,1.50
2019-02-23T08:30:16.186Z,1.90
2019-02-23T08:32:45.783Z,2.60
2019-02-23T08:35:15.247Z,3.50
2019-02-23T08:37:44.964Z,4.50
2019-02-23T08:40:17.925Z,5.60
2019-02-23T08:42:47.530Z,6.40
2019-02-23T08:45:17.079Z,7.20
2019-02-23T08:47:46.630Z,8.00
2019-02-23T08:50:16.385Z,8.70
2019-02-23T08:52:49.800Z,9.40
2019-02-23T08:55:17.146Z,9.80
2019-02-23T08:57:46.752Z,10.20
2019-02-23T09:00:17.977Z,10.60
2019-02-23T09:02:47.568Z,10.90
2019-02-23T09:05:17.725Z,11.20
2019-02-23T09:07:47.338Z,11.10
2019-02-23T09:10:16.928Z,11.10
2019-02-23T09:12:46.466Z,11.00
2019-02-23T09:15:16.066Z,10.90
2019-02-23T09:17:45.615Z,10.20
2019-02-23T09:20:15.170Z,9.10
2019-02-23T09:22:44.725Z,8.10
2019-02-23T09:25:14.278Z,7.40
2019-02-23T09:27:43.886Z,6.70
2019-02-23T09:30:14.356Z,6.20
2019-02-23T09:32:43.943Z,5.80
2019-02-23T09:35:13.469Z,5.40
2019-02-23T09:37:43.022Z,5.20
2019-02-23T09:40:15.838Z,5.10
2019-02-23T09:42:45.444Z,5.20
2019-02-23T09:45:16.326Z,5.50
2019-02-23T09:47:45.915Z,5.80
2019-02-23T09:50:15.461Z,6.10
2019-02-23T09:52:46.055Z,6.30
2019-02-23T09:55:15.608Z,6.20
2019-02-23T09:57:45.160Z,6.10
2019-02-23T10:00:14.914Z,5.90
2019-02-23T10:02:44.457Z,5.70
2019-02-23T10:05:14.490Z,5.50
2019-02-23T10:07:44.045Z,5.40
2019-02-23T10:10:13.598Z,5.30
2019-02-23T10:12:43.146Z,5.20
2019-02-23T10:15:12.709Z,5.20
2019-02-23T10:17:42.299Z,5.10
2019-02-23T10:20:13.245Z,5.20
2019-02-23T10:22:42.838Z,5.30
2019-02-23T10:25:13.379Z,5.30
2019-02-23T10:27:42.962Z,5.40
2019-02-23T10:30:13.800Z,5.50
2019-02-23T10:32:43.398Z,5.50
2019-02-23T10:35:13.640Z,5.40
2019-02-23T10:37:44.218Z,5.40
2019-02-23T10:40:13.758Z,5.40
2019-02-23T10:42:43.314Z,5.50
2019-02-23T10:45:13.505Z,5.50
2019-02-23T10:47:43.062Z,5.40
2019-02-23T10:50:14.256Z,5.40
2019-02-23T10:52:43.793Z,5.40
2019-02-23T10:55:16.108Z,5.40
2019-02-23T10:57:45.670Z,5.40
2019-02-23T11:00:20.706Z,5.20
2019-02-23T11:02:50.250Z,5.10
2019-02-23T11:05:20.379Z,5.00
2019-02-23T11:07:50.733Z,4.90
2019-02-23T11:10:20.417Z,4.90
2019-02-23T11:12:49.978Z,4.80
2019-02-23T11:15:21.011Z,4.70
2019-02-23T11:17:50.601Z,4.70
2019-02-23T11:20:20.142Z,4.70
2019-02-23T11:22:49.690Z,4.70
2019-02-23T11:25:19.246Z,4.60
2019-02-23T11:27:48.773Z,4.50
2019-02-23T11:30:18.358Z,4.40
2019-02-23T11:32:47.911Z,4.30
2019-02-23T11:35:17.898Z,4.30
2019-02-23T11:37:47.510Z,4.50
2019-02-23T11:40:17.170Z,4.60
2019-02-23T11:42:46.762Z,4.60
2019-02-23T11:45:16.297Z,4.70
2019-02-23T11:47:45.840Z,4.80
2019-02-23T11:50:16.453Z,4.90
2019-02-23T11:52:46.005Z,5.00
2019-02-23T11:55:15.547Z,5.00
2019-02-23T11:57:45.234Z,5.20
2019-02-23T12:00:15.194Z,5.30
2019-02-23T12:02:52.041Z,5.40
2019-02-23T12:05:16.471Z,5.60
2019-02-23T12:07:46.023Z,5.60
2019-02-23T12:10:16.741Z,5.70
2019-02-23T12:12:46.321Z,5.80
2019-02-23T12:15:15.857Z,6.00
2019-02-23T12:17:45.410Z,6.10
2019-02-23T12:20:14.958Z,6.30
2019-02-23T12:23:17.545Z,6.40
2019-02-23T12:25:47.089Z,6.50
2019-02-23T12:28:16.634Z,6.20
2019-02-23T12:30:46.193Z,5.90
2019-02-23T12:33:15.737Z,5.80
2019-02-23T12:35:45.324Z,5.90
2019-02-23T12:38:14.875Z,5.90
2019-02-23T12:40:44.433Z,5.90
2019-02-23T12:43:13.976Z,6.00
2019-02-23T12:45:44.622Z,5.90
2019-02-23T12:48:14.205Z,6.00
2019-02-23T12:50:43.767Z,6.00
2019-02-23T12:53:13.391Z,6.00
2019-02-23T12:55:42.939Z,5.90
2019-02-23T12:58:12.563Z,5.90
2019-02-23T13:00:42.083Z,6.00
2019-02-23T13:03:11.629Z,5.90
2019-02-23T13:05:41.186Z,6.00
2019-02-23T13:08:10.740Z,6.20
2019-02-23T13:10:40.290Z,6.30
2019-02-23T13:13:18.798Z,6.50
2019-02-23T13:15:59.995Z,6.70
2019-02-23T13:18:44.524Z,6.80
2019-02-23T13:21:19.894Z,6.90
2019-02-23T13:24:07.370Z,7.00
2019-02-23T13:26:48.951Z,6.90
2019-02-23T13:29:39.198Z,6.70
2019-02-23T13:32:44.050Z,6.60
2019-02-23T13:35:38.411Z,6.60
2019-02-23T13:38:13.778Z,7.20
2019-02-23T13:40:55.266Z,8.70
2019-02-23T13:43:48.465Z,9.80
2019-02-23T13:46:40.784Z,9.80
2019-02-23T13:49:35.846Z,9.50
2019-02-23T13:52:17.242Z,9.30
2019-02-23T13:55:24.833Z,9.20
2019-02-23T13:58:01.800Z,9.20
2019-02-23T14:00:49.482Z,9.50
2019-02-23T14:03:52.513Z,9.70
2019-02-23T14:06:43.054Z,9.80
2019-02-23T14:09:15.778Z,9.40
2019-02-23T14:12:06.581Z,8.80
2019-02-23T14:14:48.902Z,8.40
2019-02-23T14:17:39.424Z,7.90
2019-02-23T14:20:27.001Z,7.40
2019-02-23T14:23:14.807Z,7.10
2019-02-23T14:25:57.066Z,6.80
2019-02-23T14:28:46.246Z,6.50
2019-02-23T14:31:37.837Z,6.20
2019-02-23T14:34:19.521Z,5.90
2019-02-23T14:37:04.126Z,5.60
2019-02-23T14:40:11.891Z,5.40
2019-02-23T14:42:47.222Z,5.20
2019-02-23T14:45:39.286Z,5.10
2019-02-23T14:48:20.982Z,5.10
2019-02-23T14:50:53.662Z,5.10
2019-02-23T14:53:31.628Z,5.20
2019-02-23T14:56:31.817Z,5.10
2019-02-23T14:59:33.237Z,5.10
2019-02-23T15:02:28.540Z,5.00
2019-02-23T15:05:16.475Z,4.80
2019-02-23T15:08:05.245Z,4.70
2019-02-23T15:10:52.526Z,4.50
2019-02-23T15:13:42.641Z,4.40
2019-02-23T15:16:21.124Z,4.30
2019-02-23T15:19:05.632Z,4.30
2019-02-23T15:21:47.354Z,4.20
2019-02-23T15:24:28.726Z,4.10
2019-02-23T15:27:01.424Z,3.90
2019-02-23T15:29:34.257Z,3.90
2019-02-23T15:32:12.808Z,3.80
2019-02-23T15:35:01.769Z,3.80
2019-02-23T15:37:40.323Z,3.70
2019-02-23T15:40:21.794Z,3.60
2019-02-23T15:43:12.728Z,3.60
2019-02-23T15:45:48.135Z,3.50
2019-02-23T15:48:41.319Z,3.40
2019-02-23T15:51:10.889Z,3.40
2019-02-23T15:53:40.457Z,3.30
2019-02-23T15:56:09.973Z,3.20
2019-02-23T15:58:39.542Z,3.20
2019-02-23T16:01:09.125Z,3.10
2019-02-23T16:06:13.074Z,3.00
2019-02-23T16:08:44.252Z,2.90
2019-02-23T16:11:13.962Z,2.90
2019-02-23T16:13:43.547Z,2.80
2019-02-23T16:16:13.614Z,2.80
2019-02-23T16:18:43.462Z,2.70
2019-02-23T16:21:14.059Z,2.70
2019-02-23T16:23:43.611Z,2.60
2019-02-23T16:26:13.157Z,2.60
2019-02-23T16:28:43.969Z,2.60
2019-02-23T16:31:13.519Z,2.60
2019-02-23T16:33:43.078Z,2.50
2019-02-23T16:36:12.630Z,2.50
2019-02-23T16:38:42.229Z,2.40
2019-02-23T16:41:11.922Z,2.40
2019-02-23T16:43:41.487Z,2.40
2019-02-23T16:46:11.044Z,2.30
2019-02-23T16:48:40.598Z,2.30
2019-02-23T16:51:10.150Z,2.20
2019-02-23T16:53:39.734Z,2.20
2019-02-23T16:56:09.304Z,2.30
2019-02-23T16:58:38.890Z,2.30
2019-02-23T17:01:08.466Z,2.20
2019-02-23T17:03:38.052Z,2.20
2019-02-23T17:06:08.405Z,2.10
2019-02-23T17:08:37.982Z,2.00
2019-02-23T17:11:07.593Z,2.00
2019-02-23T17:13:37.142Z,1.90
2019-02-23T17:16:06.695Z,1.90
2019-02-23T17:18:36.256Z,1.90
2019-02-23T17:21:06.860Z,1.80
2019-02-23T17:23:36.533Z,1.80
2019-02-23T17:26:06.081Z,1.70
2019-02-23T17:28:35.649Z,1.70
2019-02-23T17:31:06.306Z,1.60
2019-02-23T17:33:35.913Z,1.50
2019-02-23T17:36:05.505Z,1.40
2019-02-23T17:38:36.202Z,1.40
2019-02-23T17:41:05.786Z,1.30
2019-02-23T17:43:40.161Z,1.30
2019-02-23T17:46:09.210Z,1.20
2019-02-23T17:48:38.795Z,1.20
2019-02-23T17:51:08.343Z,1.20
2019-02-23T17:53:37.898Z,1.20
2019-02-23T17:56:12.265Z,1.20
2019-02-23T17:58:39.710Z,1.30
2019-02-23T18:01:09.277Z,1.30
2019-02-23T18:03:38.824Z,1.30
2019-02-23T18:06:08.378Z,1.40
2019-02-23T18:08:37.935Z,1.40
2019-02-23T18:11:07.490Z,1.40
2019-02-23T18:13:39.093Z,1.40
2019-02-23T18:16:09.430Z,1.40
2019-02-23T18:18:39.023Z,1.40
2019-02-23T18:21:08.573Z,1.40
2019-02-23T18:23:38.226Z,1.40
2019-02-23T18:26:08.786Z,1.30
2019-02-23T18:28:38.343Z,1.30
2019-02-23T18:31:07.921Z,1.30
2019-02-23T18:33:37.466Z,1.30
2019-02-23T18:36:08.066Z,1.10
2019-02-23T18:38:37.606Z,1.10
2019-02-23T18:41:07.158Z,1.00
2019-02-23T18:43:36.706Z,1.00
2019-02-23T18:46:06.283Z,1.00
2019-02-23T18:48:35.838Z,1.00
2019-02-23T18:51:05.393Z,1.00
2019-02-23T18:53:34.995Z,0.90
2019-02-23T18:56:05.350Z,0.90
2019-02-23T18:58:34.947Z,0.80
2019-02-23T19:01:04.494Z,0.80
2019-02-23T19:03:34.074Z,0.70
2019-02-23T19:06:03.673Z,0.70
2019-02-23T19:08:33.676Z,0.70
2019-02-23T19:11:03.191Z,0.70
2019-02-23T19:13:32.738Z,0.60
2019-02-23T19:16:02.329Z,0.60
2019-02-23T19:18:31.879Z,0.50
2019-02-23T19:21:02.616Z,0.50
2019-02-23T19:23:32.238Z,0.50
2019-02-23T19:26:01.830Z,0.50
2019-02-23T19:28:31.486Z,0.50
2019-02-23T19:31:01.034Z,0.50
2019-02-23T19:33:30.691Z,0.40
2019-02-23T19:36:00.257Z,0.40
2019-02-23T19:38:29.853Z,0.40
2019-02-23T19:40:59.402Z,0.40
2019-02-23T19:43:28.958Z,0.40
2019-02-23T19:45:58.510Z,0.30
2019-02-23T19:48:28.171Z,0.20
2019-02-23T19:51:00.851Z,0.20
2019-02-23T19:53:31.689Z,0.10
2019-02-23T19:56:01.546Z,0.10
2019-02-23T19:58:31.242Z,-0.10
2019-02-23T20:01:01.786Z,-0.10
2019-02-23T20:03:31.775Z,-0.20
2019-02-23T20:06:01.326Z,-0.30
2019-02-23T20:08:31.438Z,-0.30
2019-02-23T20:11:00.994Z,-0.30
2019-02-23T20:13:30.550Z,-0.40
2019-02-23T20:16:00.499Z,-0.30
2019-02-23T20:18:30.143Z,-0.40
2019-02-23T20:20:59.725Z,-0.40
2019-02-23T20:23:29.282Z,-0.50
2019-02-23T20:25:58.902Z,-0.50
2019-02-23T20:28:28.437Z,-0.60
2019-02-23T20:30:57.998Z,-0.60
2019-02-23T20:33:27.570Z,-0.60
2019-02-23T20:35:57.154Z,-0.60
2019-02-23T20:38:26.689Z,-0.70
2019-02-23T20:40:56.267Z,-0.70
2019-02-23T20:43:25.965Z,-0.70
2019-02-23T20:45:55.526Z,-0.80
2019-02-23T20:48:25.094Z,-0.80
2019-02-23T20:50:54.646Z,-0.80
2019-02-23T20:53:24.190Z,-0.90
2019-02-23T20:55:54.063Z,-0.90
2019-02-23T20:58:23.615Z,-0.90
2019-02-23T21:00:53.166Z,-1.00
2019-02-23T21:03:23.718Z,-1.00
2019-02-23T21:05:53.288Z,-1.10
2019-02-23T21:08:22.879Z,-1.10
2019-02-23T21:10:52.429Z,-1.10
2019-02-23T21:13:21.994Z,-1.10
2019-02-23T21:15:51.550Z,-1.20
2019-02-23T21:18:21.126Z,-1.20
2019-02-23T21:20:51.646Z,-1.30
2019-02-23T21:23:21.363Z,-1.20
2019-02-23T21:25:51.057Z,-1.30
2019-02-23T21:28:20.634Z,-1.20
2019-02-23T21:30:50.206Z,-1.30
2019-02-23T21:33:19.771Z,-1.30
2019-02-23T21:35:49.329Z,-1.30
2019-02-23T21:38:18.895Z,-1.30
2019-02-23T21:40:48.458Z,-1.40
2019-02-23T21:43:18.050Z,-1.40
2019-02-23T21:45:47.618Z,-1.40
2019-02-23T21:48:18.147Z,-1.40
2019-02-23T21:50:47.687Z,-1.50
2019-02-23T21:53:17.260Z,-1.50
2019-02-23T21:55:46.822Z,-1.60
2019-02-23T21:58:16.376Z,-1.60
2019-02-23T22:00:45.964Z,-1.70
2019-02-23T22:03:15.623Z,-1.70
2019-02-23T22:05:45.174Z,-1.70
2019-02-23T22:08:14.740Z,-1.70
2019-02-23T22:10:44.311Z,-1.80
2019-02-23T22:13:13.860Z,-1.90
2019-02-23T22:15:43.445Z,-1.90
2019-02-23T22:18:13.022Z,-1.80
2019-02-23T22:20:42.570Z,-1.80
2019-02-23T22:23:12.145Z,-1.80
2019-02-23T22:25:41.706Z,-1.90
2019-02-23T22:28:11.571Z,-2.00
2019-02-23T22:30:41.177Z,-2.10
2019-02-23T22:33:11.726Z,-2.10
2019-02-23T22:35:41.315Z,-2.00
2019-02-23T22:38:10.866Z,-2.00
2019-02-23T22:40:40.446Z,-2.10
2019-02-23T22:43:10.012Z,-2.20
2019-02-23T22:45:39.564Z,-2.20
2019-02-23T22:48:09.166Z,-2.20
2019-02-23T22:50:38.718Z,-2.20
2019-02-23T22:53:08.277Z,-2.20
2019-02-23T22:55:37.858Z,-2.20
2019-02-23T22:58:07.408Z,-2.20
2019-02-23T23:00:38.565Z,-2.20
2019-02-23T23:03:09.674Z,-2.20
2019-02-23T23:05:39.297Z,-2.20
2019-02-23T23:08:08.854Z,-2.20
2019-02-23T23:10:38.402Z,-2.20
2019-02-23T23:13:07.949Z,-2.20
2019-02-23T23:15:37.785Z,-2.30
2019-02-23T23:18:07.535Z,-2.30
2019-02-23T23:20:37.095Z,-2.30
2019-02-23T23:23:06.682Z,-2.30
2019-02-23T23:25:37.246Z,-2.30
2019-02-23T23:28:06.806Z,-2.30
2019-02-23T23:30:36.409Z,-2.40
2019-02-23T23:33:05.957Z,-2.50
2019-02-23T23:35:35.530Z,-2.50
2019-02-23T23:38:05.097Z,-2.50
2019-02-23T23:40:34.650Z,-2.60
2019-02-23T23:43:04.254Z,-2.50
2019-02-23T23:45:33.815Z,-2.60
2019-02-23T23:48:03.374Z,-2.60
2019-02-23T23:50:32.939Z,-2.50
2019-02-23T23:53:02.508Z,-2.60
2019-02-23T23:55:32.130Z,-2.60
2019-02-23T23:58:01.686Z,-2.60
